Time;durP1;ratioP1;P1;durP2;ratioP2;P2;SDS_P1;SDS_P2;PMS_P1;PMS_P2;Temp;Humidity;BMP_temperature;BMP_pressure;BME280_temperature;BME280_humidity;BME280_pressure;Samples;Min_cycle;Max_cycle;Signal;HPM_P1;HPM_P2
2022/01/22 00:00:26;;;;;;;17.75;8.45;;;;;;;-3.92;80.71;100072.44;10369295;28;20065;-69
2022/01/22 00:05:28;;;;;;;17.35;8.85;;;;;;;-2.57;81.45;100291.03;10368190;28;20042;-69
2022/01/22 00:10:29;;;;;;;17.45;7.85;;;;;;;-3.95;81.32;100033.66;10370066;28;20088;-70
2022/01/22 00:15:31;;;;;;;16.17;7.78;;;;;;;-2.48;81.78;100245.47;10370078;28;20576;-69
2022/01/22 00:20:32;;;;;;;16.83;8.80;;;;;;;-2.44;81.59;100249.56;10367033;28;20048;-69
2022/01/22 00:25:33;;;;;;;15.45;7.57;;;;;;;-2.81;81.60;100186.66;10368611;28;20128;-69
2022/01/22 00:30:35;;;;;;;19.88;7.82;;;;;;;-2.55;80.94;100226.75;10369247;28;20041;-69
2022/01/22 00:35:36;;;;;;;15.57;7.40;;;;;;;-3.47;81.71;100067.38;10369641;28;20091;-69
2022/01/22 00:40:37;;;;;;;18.73;7.88;;;;;;;-2.62;81.50;100191.63;10368074;28;20046;-69
2022/01/22 00:45:38;;;;;;;15.90;8.00;;;;;;;-3.09;81.72;100113.75;10368081;28;20046;-70
2022/01/22 00:50:39;;;;;;;14.40;7.80;;;;;;;-2.79;81.83;100173.53;10368301;28;20481;-69
2022/01/22 00:55:39;;;;;;;15.73;7.85;;;;;;;-2.80;82.09;100167.50;10368465;28;20041;-70
2022/01/22 01:00:40;;;;;;;14.00;7.18;;;;;;;-2.74;81.46;100168.09;10368440;28;20098;-69
2022/01/22 01:05:41;;;;;;;14.70;7.25;;;;;;;-2.88;81.17;100166.28;10367445;28;20038;-69
2022/01/22 01:10:42;;;;;;;13.15;7.30;;;;;;;-5.01;80.86;99846.66;10367381;28;20490;-69
2022/01/22 01:15:57;;;;;;;22.70;7.63;;;;;;;-3.54;81.48;100130.97;10367507;28;20394;-69
2022/01/22 01:36:56;;;;;;;15.88;7.65;;;;;;;-3.63;82.55;100105.50;10366929;28;20044;-69
2022/01/22 01:47:04;;;;;;;15.32;7.07;;;;;;;-3.25;82.06;100143.19;10367630;28;20090;-69
2022/01/22 01:52:09;;;;;;;17.13;8.00;;;;;;;-3.35;82.18;100147.22;10366529;28;20489;-69
2022/01/22 02:02:30;;;;;;;15.32;8.40;;;;;;;-3.55;82.34;100131.88;10365759;28;20141;-69
2022/01/22 02:07:31;;;;;;;13.57;7.38;;;;;;;-3.57;81.98;100125.94;10365730;28;20042;-69
2022/01/22 02:28:15;;;;;;;14.75;7.13;;;;;;;-4.04;83.86;100046.28;10366533;28;20050;-71
2022/01/22 02:33:28;;;;;;;15.82;7.35;;;;;;;-3.57;83.53;100089.59;10364623;28;20038;-69
2022/01/22 02:38:47;;;;;;;14.75;8.20;;;;;;;-3.49;83.94;100109.00;10364661;28;20494;-69
2022/01/22 02:43:48;;;;;;;15.13;7.20;;;;;;;-3.60;83.07;100088.00;10364611;28;20061;-69
2022/01/22 02:48:50;;;;;;;14.35;6.88;;;;;;;-4.99;82.59;99881.09;10372113;28;20053;-69
2022/01/22 02:53:54;;;;;;;15.88;8.00;;;;;;;-4.89;82.66;99900.41;10372685;28;20052;-69
2022/01/22 02:58:56;;;;;;;16.92;7.35;;;;;;;-4.16;83.13;100027.88;10369900;28;20046;-69
2022/01/22 03:03:57;;;;;;;15.77;7.45;;;;;;;-4.04;83.36;100064.44;10372181;28;20045;-69
2022/01/22 03:09:00;;;;;;;16.10;7.03;;;;;;;-3.97;84.15;100050.25;10371126;28;20505;-69
2022/01/22 03:19:13;;;;;;;16.90;8.43;;;;;;;-3.37;82.56;100091.91;10371552;28;20046;-69
2022/01/22 03:29:37;;;;;;;22.33;9.82;;;;;;;-3.12;82.18;100046.38;10370244;28;20056;-69
2022/01/22 03:34:53;;;;;;;24.73;10.55;;;;;;;-4.23;83.03;99863.13;10370836;28;20130;-69
2022/01/22 03:39:55;;;;;;;20.55;10.10;;;;;;;-3.44;83.02;99999.69;10370408;28;20504;-69
2022/01/22 03:44:56;;;;;;;19.67;9.20;;;;;;;-4.08;83.45;99900.34;10371502;28;20412;-69
2022/01/22 03:49:57;;;;;;;18.38;8.93;;;;;;;-3.20;84.03;100054.63;10368746;28;20038;-69
2022/01/22 03:54:58;;;;;;;19.52;9.15;;;;;;;-4.00;84.34;99912.91;10369936;28;20042;-69
2022/01/22 03:59:59;;;;;;;18.63;8.55;;;;;;;-4.39;84.48;99849.34;10369424;28;20042;-69
2022/01/22 04:05:03;;;;;;;21.33;8.98;;;;;;;-3.52;84.80;99991.50;10369034;28;20042;-69
2022/01/22 04:10:06;;;;;;;19.65;9.00;;;;;;;-3.18;85.05;100055.34;10368969;28;20057;-69
2022/01/22 04:15:09;;;;;;;16.03;8.23;;;;;;;-3.37;84.70;100021.78;10369534;28;20166;-69
2022/01/22 04:25:34;;;;;;;17.90;9.07;;;;;;;-3.27;85.74;100030.72;10369173;28;20079;-69
2022/01/22 04:30:35;;;;;;;23.08;9.50;;;;;;;-2.68;86.04;100068.94;10390217;28;20488;-69
2022/01/22 04:35:36;;;;;;;14.30;8.38;;;;;;;-2.58;85.65;100039.69;10402175;28;20110;-71
2022/01/22 04:40:37;;;;;;;18.45;8.73;;;;;;;-3.13;85.29;99914.78;10374548;28;20144;-70
2022/01/22 04:45:49;;;;;;;16.38;8.02;;;;;;;-2.31;85.19;100049.34;10368440;28;20038;-69
2022/01/22 04:56:09;;;;;;;23.58;10.95;;;;;;;-2.00;84.15;100071.75;10367700;28;20034;-69
2022/01/22 05:01:10;;;;;;;18.55;9.45;;;;;;;-2.07;84.66;100053.06;10367407;28;20042;-70
2022/01/22 05:06:11;;;;;;;23.42;11.18;;;;;;;-2.61;84.64;99950.63;10367229;28;20432;-70
2022/01/22 05:11:12;;;;;;;18.23;9.65;;;;;;;-2.60;84.73;99892.50;10367120;28;20519;-69
2022/01/22 05:16:14;;;;;;;18.33;9.98;;;;;;;-1.24;85.45;100052.19;10366919;28;20094;-70
2022/01/22 05:21:17;;;;;;;19.00;9.52;;;;;;;-0.81;85.39;100051.97;10372064;28;20140;-69
2022/01/22 05:26:50;;;;;;;19.13;10.07;;;;;;;-0.42;85.02;100055.44;10405152;28;20397;-70
2022/01/22 05:42:02;;;;;;;18.85;8.90;;;;;;;-0.27;86.18;99982.13;10405919;28;20263;-72
2022/01/22 05:47:06;;;;;;;19.73;10.75;;;;;;;0.38;85.63;100003.66;10398964;28;20038;-71
2022/01/22 05:52:10;;;;;;;;;;;;;;;1.18;85.18;100029.97;10366613;28;20501;-72
2022/01/22 06:02:30;;;;;;;14.85;8.52;;;;;;;1.44;86.42;99990.53;10366320;28;20041;-71
2022/01/22 06:07:31;;;;;;;20.00;10.10;;;;;;;1.70;87.48;100018.13;10365588;28;20474;-72
2022/01/22 06:13:09;;;;;;;18.40;10.00;;;;;;;1.82;87.49;100030.28;10366659;28;20081;-73
2022/01/22 06:18:09;;;;;;;20.50;10.75;;;;;;;1.97;86.61;100062.28;10365288;28;20121;-75
2022/01/22 06:23:10;;;;;;;16.05;10.52;;;;;;;2.25;86.41;100074.06;10392306;28;20075;-74
2022/01/22 06:28:12;;;;;;;23.02;9.80;;;;;;;1.67;85.67;99931.13;10403089;28;20037;-76
2022/01/22 06:33:12;;;;;;;18.23;10.50;;;;;;;2.09;85.01;99979.25;10411679;28;20037;-73
2022/01/22 06:38:13;;;;;;;20.60;10.13;;;;;;;2.53;85.31;100066.63;10413540;28;20057;-74
2022/01/22 06:43:14;;;;;;;22.73;9.30;;;;;;;2.54;84.92;100102.38;10414064;28;20036;-74
2022/01/22 06:48:15;;;;;;;20.45;10.20;;;;;;;2.37;85.90;100098.47;10413427;28;20056;-74
2022/01/22 06:53:16;;;;;;;27.33;11.25;;;;;;;2.14;85.51;100074.06;10413054;28;20393;-74
2022/01/22 06:58:17;;;;;;;14.48;9.57;;;;;;;2.13;85.35;100084.69;10412384;28;20094;-74
2022/01/22 07:03:18;;;;;;;17.30;9.65;;;;;;;2.19;85.93;100132.22;10413028;28;20423;-74
2022/01/22 07:08:19;;;;;;;16.58;9.40;;;;;;;2.22;85.92;100134.59;10412742;28;20041;-74
2022/01/22 07:13:20;;;;;;;19.50;11.18;;;;;;;1.74;85.71;100071.13;10413119;28;20105;-74
2022/01/22 07:18:21;;;;;;;19.00;10.20;;;;;;;1.96;85.61;100102.53;10412983;28;20045;-73
2022/01/22 07:28:37;;;;;;;19.10;10.80;;;;;;;1.26;84.46;100022.38;10404710;28;20042;-71
2022/01/22 07:33:38;;;;;;;22.98;11.00;;;;;;;1.59;84.32;100115.00;10407819;28;20061;-73
2022/01/22 07:38:39;;;;;;;21.73;13.10;;;;;;;1.48;84.44;100083.56;10412075;28;20049;-73
2022/01/22 07:43:40;;;;;;;25.38;11.80;;;;;;;0.94;84.53;99996.03;10411015;28;20033;-73
2022/01/22 07:48:41;;;;;;;22.45;12.65;;;;;;;1.63;83.88;100092.88;10409665;28;20041;-73
2022/01/22 07:53:44;;;;;;;21.08;11.15;;;;;;;1.35;83.75;100057.50;10389019;28;20033;-73
2022/01/22 07:58:45;;;;;;;23.23;12.23;;;;;;;2.00;83.33;100124.09;10396007;28;20038;-76
2022/01/22 08:03:46;;;;;;;23.67;12.57;;;;;;;1.12;82.67;99959.81;10408029;28;20110;-74
2022/01/22 08:08:47;;;;;;;20.05;11.10;;;;;;;1.36;82.69;99973.63;10410250;28;20041;-74
2022/01/22 08:13:48;;;;;;;18.00;10.90;;;;;;;1.41;81.78;99975.91;10410995;28;20192;-75
2022/01/22 08:18:49;;;;;;;22.27;11.68;;;;;;;0.95;81.57;99897.47;10400530;28;20041;-73
2022/01/22 08:23:50;;;;;;;21.17;11.75;;;;;;;1.47;81.39;99988.50;10393402;28;20049;-73
2022/01/22 08:28:53;;;;;;;21.65;11.18;;;;;;;1.72;81.24;100052.06;10409835;28;20453;-74
2022/01/22 08:39:16;;;;;;;18.95;11.68;;;;;;;1.95;80.99;100084.34;10405756;28;20054;-74
2022/01/22 08:44:16;;;;;;;17.48;10.75;;;;;;;2.10;81.16;100125.06;10384951;28;20038;-73
2022/01/22 08:49:17;;;;;;;18.27;11.30;;;;;;;1.87;81.14;100074.44;10387653;28;20044;-73
2022/01/22 08:54:19;;;;;;;25.50;12.40;;;;;;;1.91;81.49;100065.38;10383634;28;20122;-74
2022/01/22 08:59:20;;;;;;;23.42;12.38;;;;;;;2.35;80.92;100083.81;10367878;28;20049;-73
2022/01/22 09:04:20;;;;;;;21.15;11.52;;;;;;;2.25;81.07;100020.81;10366817;28;20520;-73
2022/01/22 09:09:21;;;;;;;19.25;11.13;;;;;;;1.83;79.98;99880.03;10365852;28;20065;-74
2022/01/22 09:14:22;;;;;;;20.60;12.00;;;;;;;3.03;80.12;100040.69;10368173;28;20531;-73
2022/01/22 09:19:27;;;;;;;20.05;11.30;;;;;;;3.19;79.46;100038.44;10367333;28;20537;-73
2022/01/22 09:24:28;;;;;;;22.42;11.80;;;;;;;2.34;79.62;99907.38;10366818;28;20050;-73
2022/01/22 09:29:29;;;;;;;20.65;10.50;;;;;;;3.30;79.77;100008.66;10367084;28;20034;-73
2022/01/22 09:34:30;;;;;;;19.73;11.93;;;;;;;2.74;79.12;99828.81;10367431;28;20055;-73
2022/01/22 09:39:30;;;;;;;22.50;12.13;;;;;;;4.09;78.33;100003.59;10366739;28;20046;-73
2022/01/22 09:44:33;;;;;;;21.52;10.63;;;;;;;4.34;77.88;100048.78;10366344;28;20068;-74
2022/01/22 09:49:34;;;;;;;23.45;11.60;;;;;;;3.89;79.18;100028.19;10366614;28;20069;-74
2022/01/22 09:54:35;;;;;;;21.52;12.20;;;;;;;3.85;79.75;100043.34;10376157;28;20510;-74
2022/01/22 09:59:38;;;;;;;20.75;11.98;;;;;;;3.74;80.43;100046.09;10392702;28;20471;-73
2022/01/22 10:04:40;;;;;;;25.65;11.90;;;;;;;3.51;80.53;100024.41;10392748;28;20133;-75
2022/01/22 10:10:01;;;;;;;20.48;12.25;;;;;;;3.79;80.67;100066.69;10370491;28;20065;-73
2022/01/22 10:15:12;;;;;;;24.02;12.30;;;;;;;3.65;81.00;100089.72;10365556;28;20505;-73
2022/01/22 10:20:23;;;;;;;24.05;13.80;;;;;;;3.93;81.16;100073.41;10364801;28;20068;-73
2022/01/22 10:25:32;;;;;;;25.88;13.48;;;;;;;3.99;80.65;100065.00;10400753;28;20065;-75
2022/01/22 10:30:36;;;;;;;34.75;13.68;;;;;;;3.18;80.01;99888.97;10405081;28;20056;-73
2022/01/22 10:35:37;;;;;;;24.00;13.82;;;;;;;4.09;80.09;100000.97;10406211;28;20481;-73
2022/01/22 10:40:40;;;;;;;27.42;13.13;;;;;;;3.91;79.66;99926.38;10405951;28;20045;-73
2022/01/22 10:45:41;;;;;;;27.23;12.85;;;;;;;4.84;79.78;100032.88;10405888;28;20037;-73
2022/01/22 10:50:43;;;;;;;22.63;11.30;;;;;;;5.10;79.14;100074.47;10406012;28;20091;-73
2022/01/22 10:56:01;;;;;;;18.60;10.48;;;;;;;5.03;78.59;100038.16;10405032;28;20046;-73
2022/01/22 11:01:05;;;;;;;16.77;9.57;;;;;;;4.73;78.92;99981.25;10392573;28;20038;-73
2022/01/22 11:06:08;;;;;;;20.40;9.90;;;;;;;4.22;78.66;99918.38;10384423;28;20145;-74
2022/01/22 11:11:09;;;;;;;19.03;9.57;;;;;;;5.22;79.58;100062.81;10397647;28;20057;-74
2022/01/22 11:16:11;;;;;;;21.88;8.77;;;;;;;4.76;78.80;100009.91;10392440;28;20044;-73
2022/01/22 11:21:13;;;;;;;15.82;7.95;;;;;;;5.18;79.17;100075.44;10396689;28;20046;-73
2022/01/22 11:26:15;;;;;;;15.27;8.55;;;;;;;4.67;78.81;99931.00;10392444;28;20045;-77
2022/01/22 11:31:17;;;;;;;17.02;9.18;;;;;;;5.74;77.22;100044.78;10386139;28;20106;-73
2022/01/22 11:51:42;;;;;;;13.18;6.70;;;;;;;5.34;77.41;100053.78;10470048;28;20452;-73
2022/01/22 11:56:54;;;;;;;12.82;5.63;;;;;;;5.39;76.73;100090.25;10464019;28;20049;-73
2022/01/22 12:01:59;;;;;;;10.98;5.50;;;;;;;4.91;77.70;100068.22;10466650;28;20048;-73
2022/01/22 12:07:00;;;;;;;14.32;5.60;;;;;;;4.70;78.73;100083.31;10466460;28;20037;-74
2022/01/22 12:17:51;;;;;;;10.68;6.22;;;;;;;4.58;80.84;100088.69;10464795;28;20078;-74
2022/01/22 12:22:52;;;;;;;12.32;5.90;;;;;;;3.35;79.31;99874.38;10464227;28;20037;-74
2022/01/22 12:27:55;;;;;;;14.30;7.63;;;;;;;4.59;79.63;100102.69;10463109;28;20036;-79
2022/01/22 12:32:57;;;;;;;17.85;6.90;;;;;;;4.53;80.22;100092.69;10465167;28;20037;-79
2022/01/22 12:43:34;;;;;;;11.18;5.40;;;;;;;4.05;81.05;100046.88;10463776;28;20051;-80
2022/01/22 12:48:38;;;;;;;16.50;7.47;;;;;;;3.94;81.79;100056.66;10455498;28;20065;-78
2022/01/22 12:53:48;;;;;;;41.92;18.98;;;;;;;4.12;82.32;100076.94;10433423;28;20091;-80
2022/01/22 12:58:49;;;;;;;22.52;12.57;;;;;;;3.76;82.51;100053.81;10433174;28;20036;-80
2022/01/22 13:03:52;;;;;;;13.80;7.70;;;;;;;3.72;82.77;100076.06;10434732;28;20044;-78
2022/01/22 13:08:57;;;;;;;11.53;5.93;;;;;;;3.76;82.80;100096.69;10437652;28;20153;-79
2022/01/22 13:13:59;;;;;;;14.15;7.00;;;;;;;3.56;83.20;100093.13;10457937;28;20049;-79
2022/01/22 13:19:00;;;;;;;15.98;7.03;;;;;;;3.04;83.71;100047.59;10457414;28;20041;-79
2022/01/22 13:24:08;;;;;;;18.23;7.60;;;;;;;3.29;84.51;100096.28;10459085;28;20098;-78
2022/01/22 13:29:17;;;;;;;14.90;7.35;;;;;;;3.51;84.93;100150.47;10458785;28;20044;-78
2022/01/22 13:34:29;;;;;;;20.92;8.35;;;;;;;2.64;84.68;100022.00;10458531;28;20439;-79
2022/01/22 13:40:30;;;;;;;16.48;8.43;;;;;;;3.01;85.28;100083.75;10458847;28;20094;-78
2022/01/22 13:45:23;;;;;;;17.73;9.20;;;;;;;2.91;85.14;100081.06;10448211;28;20079;-78
2022/01/22 13:50:25;;;;;;;29.33;13.52;;;;;;;2.80;85.59;100095.03;10456471;28;20590;-79
2022/01/22 13:55:26;;;;;;;72.78;37.30;;;;;;;2.89;85.70;100119.69;10458243;28;20041;-78
2022/01/22 14:00:27;;;;;;;25.45;14.18;;;;;;;2.90;86.09;100134.47;10456560;28;20094;-78
2022/01/22 14:05:29;;;;;;;21.27;12.48;;;;;;;1.58;85.80;99940.53;10456611;28;20531;-78
2022/01/22 14:10:31;;;;;;;21.42;11.38;;;;;;;2.61;86.38;100150.75;10456695;28;20378;-78
2022/01/22 14:15:36;;;;;;;23.80;13.35;;;;;;;2.53;87.02;100153.16;10457360;28;20087;-78
2022/01/22 14:20:56;;;;;;;22.20;12.70;;;;;;;2.04;86.91;100097.53;10452607;28;20075;-80
2022/01/22 14:26:09;;;;;;;22.88;12.52;;;;;;;2.58;85.86;100219.19;10435124;28;20049;-80
2022/01/22 14:31:51;;;;;;;24.35;13.60;;;;;;;2.17;86.16;100202.25;10337497;28;20050;-75
2022/01/22 14:36:51;;;;;;;22.10;12.07;;;;;;;2.08;86.84;100187.22;10347149;28;20050;-76
2022/01/22 14:47:28;;;;;;;18.83;11.45;;;;;;;1.91;86.40;100162.31;10459567;28;20492;-76
2022/01/22 14:52:29;;;;;;;31.50;15.73;;;;;;;1.95;86.23;100199.59;10464671;28;20041;-74
2022/01/22 14:57:33;;;;;;;23.83;12.77;;;;;;;1.75;85.70;100160.03;10468413;28;20416;-79
2022/01/22 15:02:35;;;;;;;21.90;13.15;;;;;;;1.91;85.64;100196.34;10464384;28;20270;-80
2022/01/22 15:07:36;;;;;;;22.98;10.45;;;;;;;1.37;86.42;100134.09;10464993;28;20777;-78
2022/01/22 15:12:38;;;;;;;19.20;10.77;;;;;;;0.97;86.77;100087.34;10462542;28;20476;-77
2022/01/22 15:18:07;;;;;;;22.33;10.70;;;;;;;1.07;87.53;100106.63;10466191;28;20037;-79
2022/01/22 15:23:03;;;;;;;17.90;9.13;;;;;;;0.85;88.08;100096.09;10391741;28;20051;-77
2022/01/22 15:28:04;;;;;;;17.50;8.52;;;;;;;1.59;88.80;100224.97;10486600;28;20045;-77
2022/01/22 15:33:19;;;;;;;15.68;9.10;;;;;;;1.30;89.65;100167.75;10488889;28;20036;-78
2022/01/22 15:38:20;;;;;;;17.63;7.78;;;;;;;1.67;89.11;100209.50;10486479;28;20100;-77
2022/01/22 15:43:20;;;;;;;16.35;8.68;;;;;;;1.66;89.20;100204.41;10486394;28;20077;-77
2022/01/22 15:48:21;;;;;;;15.23;8.32;;;;;;;0.98;89.75;100086.38;10486451;28;20052;-77
2022/01/22 15:53:22;;;;;;;18.50;8.30;;;;;;;1.75;90.28;100237.75;10459438;28;20041;-77
2022/01/22 15:58:23;;;;;;;23.52;9.27;;;;;;;1.75;90.47;100232.53;10459847;28;20041;-77
2022/01/22 16:03:25;;;;;;;21.80;10.75;;;;;;;1.66;90.85;100225.34;10459140;28;20045;-77
2022/01/22 16:08:26;;;;;;;21.35;11.65;;;;;;;0.95;91.62;100122.41;10458373;28;20127;-77
2022/01/22 16:13:27;;;;;;;20.35;10.65;;;;;;;1.85;91.30;100264.09;10458659;28;20586;-76
2022/01/22 16:18:27;;;;;;;18.73;9.73;;;;;;;1.69;91.36;100218.09;10459183;28;20531;-74
2022/01/22 16:23:28;;;;;;;23.25;9.88;;;;;;;1.91;91.62;100251.38;10459877;28;20043;-76
2022/01/22 16:28:29;;;;;;;15.55;9.90;;;;;;;0.96;90.84;100090.91;10455450;28;20154;-74
2022/01/22 16:33:30;;;;;;;17.15;9.85;;;;;;;0.89;91.04;100066.97;10455876;28;20043;-75
2022/01/22 16:38:31;;;;;;;20.52;10.65;;;;;;;1.10;91.66;100114.25;10456365;28;20061;-75
2022/01/22 16:43:35;;;;;;;22.27;11.05;;;;;;;1.57;91.70;100213.78;10446506;28;20049;-75
2022/01/22 16:59:03;;;;;;;28.17;14.48;;;;;;;1.57;91.86;100187.59;10439873;28;20539;-78
2022/01/22 17:04:05;;;;;;;23.13;11.95;;;;;;;1.40;92.05;100165.28;10455782;28;20041;-80
2022/01/22 17:09:19;;;;;;;27.38;13.35;;;;;;;1.16;92.50;100120.00;10452589;28;20072;-78
2022/01/22 17:14:20;;;;;;;22.73;12.10;;;;;;;0.38;92.56;99972.28;10449874;28;20040;-85
2022/01/22 17:19:25;;;;;;;17.88;10.75;;;;;;;1.79;92.54;100192.88;10442594;28;20045;-74
2022/01/22 17:24:27;;;;;;;21.63;11.30;;;;;;;1.13;92.28;100079.19;10448779;28;20518;-80
2022/01/22 17:29:29;;;;;;;22.20;11.25;;;;;;;1.12;92.12;100077.53;10456380;28;20037;-80
2022/01/22 17:34:30;;;;;;;21.75;11.48;;;;;;;0.94;92.24;100048.34;10453190;28;20404;-76
2022/01/22 17:39:35;;;;;;;19.65;10.88;;;;;;;1.81;92.59;100203.25;10452605;28;20064;-79
2022/01/22 17:44:45;;;;;;;28.85;10.60;;;;;;;1.50;92.57;100174.13;10454080;28;20045;-81
2022/01/22 17:49:47;;;;;;;20.02;10.80;;;;;;;1.52;92.34;100168.75;10410493;28;20128;-79
2022/01/22 17:54:48;;;;;;;19.27;10.75;;;;;;;0.44;92.23;99970.06;10411525;28;20082;-79
2022/01/22 17:59:48;;;;;;;25.08;10.38;;;;;;;1.02;91.48;100059.06;10412153;28;20528;-79
2022/01/22 18:04:49;;;;;;;19.75;10.80;;;;;;;-0.08;91.61;99879.84;10412334;28;20404;-78
2022/01/22 18:09:52;;;;;;;23.23;10.50;;;;;;;1.87;91.69;100186.25;10411369;28;20037;-76
2022/01/22 18:14:53;;;;;;;26.20;10.50;;;;;;;1.89;91.99;100215.78;10411514;28;20045;-78
2022/01/22 18:19:54;;;;;;;19.30;10.60;;;;;;;1.39;92.51;100132.22;10412624;28;20053;-77
2022/01/22 18:24:56;;;;;;;24.60;12.07;;;;;;;0.99;92.45;100042.75;10410806;28;20037;-78
2022/01/22 18:29:57;;;;;;;24.25;11.52;;;;;;;1.94;92.43;100195.28;10410774;28;20766;-78
2022/01/22 18:34:58;;;;;;;30.02;10.90;;;;;;;1.21;92.82;100073.41;10410842;28;20045;-78
2022/01/22 18:39:59;;;;;;;19.23;9.38;;;;;;;1.32;92.88;100086.50;10409408;28;20065;-77
2022/01/22 18:45:01;;;;;;;22.05;9.52;;;;;;;1.31;93.08;100063.88;10411750;28;20047;-78
2022/01/22 18:50:04;;;;;;;21.58;9.10;;;;;;;1.31;92.23;100038.56;10408315;28;20609;-78
2022/01/22 18:55:06;;;;;;;23.23;8.60;;;;;;;1.02;92.37;99991.06;10409589;28;20068;-78
2022/01/22 19:00:11;;;;;;;27.15;8.18;;;;;;;1.88;92.37;100135.50;10409619;28;20034;-74
2022/01/22 19:05:12;;;;;;;19.33;8.63;;;;;;;1.59;92.60;100081.81;10403065;28;20451;-90
2022/01/22 19:10:14;;;;;;;23.67;7.80;;;;;;;2.10;92.65;100163.53;10411089;28;20087;-76
2022/01/22 19:15:15;;;;;;;16.90;7.65;;;;;;;1.71;92.58;100095.75;10410091;28;20166;-78
2022/01/22 19:20:18;;;;;;;27.10;8.70;;;;;;;1.26;92.10;99992.78;10411654;28;20600;-78
2022/01/22 19:30:21;;;;;;;24.73;8.02;;;;;;;1.25;92.65;100002.38;10418803;28;20041;-80
2022/01/22 19:35:21;;;;;;;32.08;8.30;;;;;;;2.12;93.04;100151.13;10418984;28;20112;-80
2022/01/22 19:40:27;;;;;;;44.30;13.07;;;;;;;0.35;93.44;99873.22;10416829;28;20053;-80
2022/01/22 19:45:28;;;;;;;49.55;23.98;;;;;;;1.33;93.87;100022.75;10413289;28;20041;-79
2022/01/22 19:50:30;;;;;;;31.45;9.88;;;;;;;2.03;94.00;100131.72;10419013;28;20041;-79
2022/01/22 19:55:31;;;;;;;30.42;12.32;;;;;;;1.56;94.21;100048.00;10419758;28;20034;-79
2022/01/22 20:00:33;;;;;;;35.13;8.68;;;;;;;0.74;94.39;99897.31;10416640;28;20053;-79
2022/01/22 20:05:35;;;;;;;65.95;19.33;;;;;;;1.39;94.67;100022.28;10417466;28;20403;-78
2022/01/22 20:10:37;;;;;;;60.05;10.18;;;;;;;2.01;94.60;100116.13;10418274;28;20075;-77
2022/01/22 20:15:38;;;;;;;20.08;8.15;;;;;;;0.76;94.24;99896.25;10418437;28;20127;-77
2022/01/22 20:20:39;;;;;;;28.25;9.23;;;;;;;2.03;94.70;100122.09;10418027;28;20052;-77
2022/01/22 20:25:41;;;;;;;28.50;10.30;;;;;;;1.74;95.07;100100.75;10417655;28;20056;-77
2022/01/22 20:30:43;;;;;;;30.30;10.82;;;;;;;1.21;95.35;100011.44;10417195;28;20096;-77
2022/01/22 20:35:44;;;;;;;69.22;12.02;;;;;;;1.85;95.41;100106.94;10416902;28;20041;-77
2022/01/22 20:40:45;;;;;;;27.85;7.53;;;;;;;1.45;95.82;100047.97;10416833;28;20057;-77
2022/01/22 20:45:45;;;;;;;40.75;8.55;;;;;;;0.11;95.93;99847.16;10417827;28;20443;-78
2022/01/22 20:50:46;;;;;;;10.77;5.50;;;;;;;1.46;98.32;100090.69;10413922;28;20519;-76
2022/01/22 20:55:47;;;;;;;20.88;6.97;;;;;;;1.21;97.21;100065.53;10415166;28;20048;-77
2022/01/22 21:00:49;;;;;;;14.05;6.30;;;;;;;-0.03;96.53;99854.22;10416020;28;20047;-77
2022/01/22 21:05:51;;;;;;;12.20;5.53;;;;;;;1.29;97.49;100053.56;10415312;28;20092;-76
2022/01/22 21:10:52;;;;;;;13.85;6.38;;;;;;;-1.27;97.42;99687.56;10417205;28;20568;-76
2022/01/22 21:15:53;;;;;;;8.85;5.28;;;;;;;1.43;98.59;100104.00;10417109;28;20124;-76
2022/01/22 21:20:53;;;;;;;13.75;6.75;;;;;;;0.15;99.25;99924.31;10415638;28;20140;-77
2022/01/22 21:25:54;;;;;;;11.10;6.28;;;;;;;0.44;98.86;99946.53;10415942;28;20038;-77
2022/01/22 21:30:56;;;;;;;20.92;7.30;;;;;;;0.40;99.26;99899.84;10415025;28;20037;-77
2022/01/22 21:35:57;;;;;;;14.23;7.07;;;;;;;1.45;99.04;100055.84;10415148;28;20037;-77
2022/01/22 21:40:59;;;;;;;18.60;7.18;;;;;;;1.75;99.08;100057.88;10429416;28;20064;-77
2022/01/22 21:46:00;;;;;;;18.77;7.45;;;;;;;1.62;99.21;100023.13;10414280;28;20052;-77
2022/01/22 21:51:02;;;;;;;11.73;6.78;;;;;;;1.32;98.67;100000.97;10412916;28;20106;-78
2022/01/22 21:56:04;;;;;;;12.52;7.10;;;;;;;0.96;98.84;99940.97;10414335;28;20037;-77
2022/01/22 22:01:04;;;;;;;12.55;7.43;;;;;;;1.73;98.98;100078.09;10414151;28;20056;-77
2022/01/22 22:06:05;;;;;;;13.63;6.68;;;;;;;1.09;98.92;99955.63;10429356;28;20516;-77
2022/01/22 22:11:06;;;;;;;12.02;5.70;;;;;;;1.56;99.25;100011.34;10414142;28;20044;-77
2022/01/22 22:16:09;;;;;;;10.40;5.40;;;;;;;1.69;98.31;100037.41;10412510;28;20409;-77
2022/01/22 22:21:12;;;;;;;10.25;5.95;;;;;;;-0.97;97.93;99630.63;10412503;28;20465;-77
2022/01/22 22:26:14;;;;;;;13.25;5.47;;;;;;;0.91;99.14;99950.00;10414168;28;20091;-77
2022/01/22 22:31:14;;;;;;;7.35;4.55;;;;;;;0.36;100.00;99898.41;10412819;28;20037;-76
2022/01/22 22:36:18;;;;;;;11.38;5.65;;;;;;;0.90;100.00;100000.66;10412978;28;20500;-78
2022/01/22 22:41:22;;;;;;;10.52;5.03;;;;;;;0.96;100.00;100004.59;10413816;28;20061;-77
2022/01/22 22:46:23;;;;;;;;;;;;;;;1.31;98.07;100035.94;10414042;28;20385;-77
2022/01/22 22:51:24;;;;;;;8.82;4.95;;;;;;;0.15;98.72;99872.09;10413612;28;19917;-77
2022/01/22 22:56:25;;;;;;;11.48;5.10;;;;;;;0.98;100.00;99953.00;10413620;28;20069;-77
2022/01/22 23:01:26;;;;;;;9.10;5.50;;;;;;;-1.06;98.98;99628.69;10417914;28;20069;-77
2022/01/22 23:06:28;;;;;;;8.80;5.30;;;;;;;1.37;99.50;100021.56;10421114;28;20042;-77
2022/01/22 23:11:35;;;;;;;8.30;5.25;;;;;;;-0.50;99.07;99735.84;10420050;28;20064;-77
2022/01/22 23:21:58;;;;;;;11.85;5.88;;;;;;;1.00;100.00;99992.94;10420328;28;20049;-77
2022/01/22 23:26:59;;;;;;;38.28;6.70;;;;;;;0.12;100.00;99838.34;10420970;28;20038;-77
2022/01/22 23:32:01;;;;;;;32.53;6.25;;;;;;;-0.10;100.00;99829.50;10418575;28;20033;-78
2022/01/22 23:58:49;;;;;;;26.80;5.72;;;;;;;0.34;100.00;99900.31;10419024;28;20512;-76
